createdAt,value
2023-03-20T00:00:01.078Z,70.1
2023-03-20T00:05:01.254Z,75.9
2023-03-20T00:20:01.642Z,83.2
2023-03-20T00:25:01.661Z,92.1
2023-03-20T00:30:06.603Z,88.3
2023-03-20T00:35:01.600Z,67.7
2023-03-20T00:50:01.033Z,43.8
2023-03-20T00:55:01.075Z,41.1
2023-03-20T01:00:00.958Z,40.3
2023-03-20T01:05:01.017Z,33.8
2023-03-20T01:10:00.982Z,41.7
2023-03-20T01:15:01.005Z,35.4
2023-03-20T01:20:00.935Z,27.7
2023-03-20T01:25:01.061Z,29.4
2023-03-20T01:30:00.965Z,37.3
2023-03-20T01:35:01.022Z,34.2
2023-03-20T01:40:00.949Z,45.6
2023-03-20T01:45:01.095Z,50.2
2023-03-20T01:50:00.984Z,47.0
2023-03-20T02:10:00.881Z,17.0
2023-03-20T02:15:00.895Z,30.9
2023-03-20T02:20:00.774Z,43.1
2023-03-20T02:40:01.354Z,60.4
2023-03-20T02:45:01.230Z,68.6
2023-03-20T03:00:01.695Z,59.0
2023-03-20T03:05:02.816Z,52.2
2023-03-20T03:10:01.521Z,48.8
2023-03-20T03:15:01.563Z,60.2
2023-03-20T03:20:01.512Z,59.0
2023-03-20T03:25:01.628Z,55.8
2023-03-20T03:30:01.488Z,58.5
2023-03-20T03:35:01.607Z,61.7
2023-03-20T03:40:01.502Z,48.5
2023-03-20T03:45:01.603Z,49.0
2023-03-20T03:50:01.466Z,55.2
2023-03-20T03:55:01.526Z,61.6
2023-03-20T04:00:01.488Z,58.4
2023-03-20T04:05:01.707Z,77.6
2023-03-20T04:10:01.471Z,92.4
2023-03-20T04:15:03.206Z,103.0
2023-03-20T04:20:02.534Z,105.0
2023-03-20T04:25:01.555Z,113.0
2023-03-20T04:30:01.484Z,105.9
2023-03-20T04:35:01.507Z,92.5
2023-03-20T04:40:01.508Z,72.2
2023-03-20T04:45:01.505Z,66.1
2023-03-20T04:50:01.457Z,59.4
2023-03-20T04:55:01.558Z,62.8
2023-03-20T05:00:01.457Z,65.2
2023-03-20T05:05:01.515Z,67.3
2023-03-20T05:10:01.430Z,66.5
2023-03-20T05:15:01.474Z,68.8
2023-03-20T05:20:01.437Z,66.4
2023-03-20T05:25:01.465Z,64.2
2023-03-20T05:30:01.412Z,71.3
2023-03-20T05:35:01.464Z,68.7
2023-03-20T05:40:01.486Z,66.3
2023-03-20T05:45:01.485Z,57.9
2023-03-20T05:50:01.432Z,58.4
2023-03-20T05:55:07.523Z,54.4
2023-03-20T06:00:01.434Z,49.0
2023-03-20T06:05:01.542Z,48.1
2023-03-20T06:10:02.456Z,40.2
2023-03-20T06:15:01.476Z,29.9
2023-03-20T06:20:01.643Z,23.8
2023-03-20T06:25:01.512Z,21.4
2023-03-20T06:45:01.526Z,47.8
2023-03-20T06:50:01.365Z,65.3
2023-03-20T06:55:01.412Z,74.7
2023-03-20T07:00:01.398Z,75.1
2023-03-20T07:05:01.577Z,89.9
2023-03-20T07:10:01.424Z,89.0
2023-03-20T07:15:01.494Z,84.2
2023-03-20T07:20:01.374Z,71.8
2023-03-20T07:25:01.453Z,69.3
2023-03-20T07:30:01.372Z,59.4
2023-03-20T07:35:01.388Z,58.0
2023-03-20T07:40:01.318Z,58.6
2023-03-20T07:45:01.418Z,68.3
2023-03-20T07:50:01.312Z,72.6
2023-03-20T07:55:01.440Z,81.3
2023-03-20T08:00:01.603Z,78.1
2023-03-20T08:05:01.462Z,78.8
2023-03-20T08:10:01.334Z,74.8
2023-03-20T08:15:01.513Z,71.2
2023-03-20T08:20:01.311Z,68.5
2023-03-20T08:25:01.482Z,65.4
2023-03-20T08:30:01.606Z,59.6
2023-03-20T08:35:01.414Z,58.1
2023-03-20T08:40:06.307Z,61.4
2023-03-20T08:45:01.390Z,67.7
2023-03-20T08:50:01.332Z,75.8
2023-03-20T08:55:01.344Z,79.0
2023-03-20T09:00:01.573Z,80.9
2023-03-20T09:05:01.332Z,79.4
2023-03-20T09:10:01.321Z,76.4
2023-03-20T09:15:01.441Z,69.9
2023-03-20T09:20:01.351Z,56.4
2023-03-20T09:30:01.267Z,51.9
2023-03-20T09:35:01.398Z,53.4
2023-03-20T09:40:01.437Z,58.2
2023-03-20T09:45:06.332Z,76.0
2023-03-20T10:00:01.130Z,85.4
2023-03-20T10:05:02.043Z,51.0
2023-03-20T10:10:01.126Z,63.9
2023-03-20T10:15:01.152Z,69.9
2023-03-20T10:20:01.072Z,73.9
2023-03-20T10:40:02.061Z,87.2
2023-03-20T11:00:01.061Z,87.8
2023-03-20T11:05:00.964Z,87.1
2023-03-20T11:10:00.899Z,88.9
2023-03-20T11:15:00.986Z,88.4
2023-03-20T11:20:00.965Z,86.6
2023-03-20T11:25:01.037Z,88.3
2023-03-20T11:30:00.901Z,87.2
2023-03-20T11:35:00.964Z,84.7
2023-03-20T11:40:01.958Z,86.2
2023-03-20T12:05:01.672Z,49.2
2023-03-20T12:10:01.586Z,64.1
2023-03-20T12:15:01.633Z,73.5
2023-03-20T12:20:01.513Z,79.5
2023-03-20T12:25:01.577Z,97.2
2023-03-20T12:40:01.067Z,74.4
2023-03-20T12:45:01.144Z,37.2
2023-03-20T12:50:01.013Z,56.5
2023-03-20T13:10:01.502Z,97.0
2023-03-20T13:30:00.964Z,91.6
2023-03-20T13:35:00.845Z,94.6
2023-03-20T13:40:00.789Z,94.5
2023-03-20T14:00:01.273Z,95.0
2023-03-20T14:05:01.284Z,99.5
2023-03-20T14:10:01.152Z,101.4
2023-03-20T14:30:01.757Z,101.6
2023-03-20T14:50:01.018Z,95.2
2023-03-20T14:55:00.986Z,103.3
2023-03-20T15:10:01.370Z,91.8
2023-03-20T15:15:01.369Z,94.2
2023-03-20T15:20:01.253Z,94.0
2023-03-20T15:40:01.803Z,119.8
2023-03-20T15:45:06.692Z,116.9
2023-03-20T15:50:01.625Z,110.0
2023-03-20T15:55:01.715Z,103.8
2023-03-20T16:00:01.652Z,94.2
2023-03-20T16:05:01.757Z,87.7
2023-03-20T16:10:01.641Z,81.8
2023-03-20T16:15:01.680Z,81.0
2023-03-20T16:20:01.634Z,81.6
2023-03-20T16:25:01.716Z,89.2
2023-03-20T16:30:01.654Z,90.6
2023-03-20T16:35:01.734Z,133.6
2023-03-20T16:40:01.634Z,136.4
2023-03-20T16:45:06.728Z,138.8
2023-03-20T16:50:01.604Z,139.6
2023-03-20T17:10:01.750Z,90.8
2023-03-20T17:30:01.035Z,86.4
2023-03-20T17:35:00.923Z,85.5
2023-03-20T17:40:01.898Z,86.5
2023-03-20T17:45:00.946Z,88.1
2023-03-20T17:50:01.214Z,88.5
2023-03-20T17:55:00.995Z,89.9
2023-03-20T18:00:00.882Z,89.8
2023-03-20T18:05:01.024Z,72.7
2023-03-20T18:10:00.897Z,71.6
2023-03-20T18:15:01.022Z,71.4
2023-03-20T18:20:00.891Z,70.7
2023-03-20T18:25:01.023Z,73.4
2023-03-20T18:30:00.940Z,90.2
2023-03-20T18:35:00.960Z,87.8
2023-03-20T18:40:00.932Z,85.8
2023-03-20T18:45:01.126Z,83.3
2023-03-20T18:50:01.043Z,70.4
2023-03-20T18:55:01.043Z,68.4
2023-03-20T19:00:00.894Z,69.6
2023-03-20T19:05:01.045Z,70.3
2023-03-20T19:10:01.037Z,69.7
2023-03-20T19:15:01.065Z,81.1
2023-03-20T19:20:00.917Z,84.9
2023-03-20T19:25:00.966Z,87.2
2023-03-20T19:30:00.929Z,90.1
2023-03-20T20:00:47.133Z,88.6
2023-03-20T20:05:02.252Z,87.2
2023-03-20T20:10:01.202Z,82.6
2023-03-20T20:15:01.331Z,85.1
2023-03-20T20:20:01.435Z,86.4
2023-03-20T20:25:02.280Z,87.8
2023-03-20T20:30:01.159Z,88.7
2023-03-20T21:00:01.029Z,75.4
2023-03-20T21:05:00.937Z,72.6
2023-03-20T21:10:00.864Z,70.7
2023-03-20T21:15:00.934Z,76.9
2023-03-20T21:20:01.217Z,80.2
2023-03-20T21:25:13.704Z,84.0
2023-03-20T21:30:00.867Z,70.0
2023-03-20T21:35:00.995Z,76.6
2023-03-20T21:40:00.888Z,76.8
2023-03-20T22:50:01.454Z,93.6
2023-03-20T22:55:01.366Z,96.5
2023-03-20T23:00:01.295Z,96.2
2023-03-20T23:05:01.412Z,95.0
2023-03-20T23:10:01.318Z,94.4
2023-03-20T23:15:01.420Z,94.2
2023-03-20T23:20:11.165Z,92.2
2023-03-20T23:25:09.928Z,73.0
2023-03-20T23:30:01.281Z,71.2
2023-03-20T23:35:01.332Z,72.1
2023-03-20T23:40:01.258Z,72.6
2023-03-20T23:45:10.188Z,74.2
2023-03-20T23:50:01.306Z,93.6
2023-03-20T23:55:01.390Z,96.5
